Time;durP1;ratioP1;P1;durP2;ratioP2;P2;SDS_P1;SDS_P2;PMS_P1;PMS_P2;Temp;Humidity;BMP_temperature;BMP_pressure;BME280_temperature;BME280_humidity;BME280_pressure;Samples;Min_cycle;Max_cycle;Signal;HPM_P1;HPM_P2
2022/09/02 00:00:59;;;;;;;2.43;1.77;;;20.90;99.90;;;;;;5035735;28;20820;-91
2022/09/02 00:03:29;;;;;;;2.60;1.37;;;20.80;99.90;;;;;;5035278;28;20438;-91
2022/09/02 00:05:56;;;;;;;1.20;1.10;;;20.80;99.90;;;;;;5019574;28;20454;-90
2022/09/02 00:08:22;;;;;;;1.50;1.40;;;20.80;99.90;;;;;;5019438;28;20478;-93
2022/09/02 00:10:47;;;;;;;2.93;1.40;;;20.80;99.90;;;;;;5020019;28;20443;-94
2022/09/02 00:13:15;;;;;;;2.37;1.33;;;20.80;99.90;;;;;;5037541;28;20200;-93
2022/09/02 00:15:42;;;;;;;1.63;1.53;;;20.80;99.90;;;;;;5023131;28;20468;-93
2022/09/02 00:18:11;;;;;;;1.60;1.30;;;20.80;99.90;;;;;;5040003;28;20423;-91
2022/09/02 00:20:38;;;;;;;3.80;1.70;;;20.70;99.90;;;;;;5024202;28;20486;-93
2022/09/02 00:23:04;;;;;;;1.80;1.70;;;20.70;99.90;;;;;;5024247;28;20422;-91
2022/09/02 00:25:31;;;;;;;1.30;1.20;;;20.70;99.90;;;;;;5040789;28;20478;-90
2022/09/02 00:27:56;;;;;;;1.50;1.40;;;20.70;99.90;;;;;;5042102;28;20491;-93
2022/09/02 00:30:22;;;;;;;1.40;1.23;;;20.60;99.90;;;;;;5021359;28;20462;-91
2022/09/02 00:32:47;;;;;;;1.70;1.30;;;20.60;99.90;;;;;;5020587;28;20647;-91
2022/09/02 00:35:13;;;;;;;1.87;1.70;;;20.60;99.90;;;;;;5040916;28;20281;-91
2022/09/02 00:37:39;;;;;;;1.47;1.37;;;20.60;99.90;;;;;;5022383;28;20194;-90
2022/09/02 00:40:06;;;;;;;3.20;1.40;;;20.50;99.90;;;;;;5020970;28;20229;-91
2022/09/02 00:42:33;;;;;;;1.60;1.30;;;20.50;99.90;;;;;;5020647;28;20195;-90
2022/09/02 00:45:00;;;;;;;1.73;1.60;;;20.50;99.90;;;;;;5021149;28;20442;-92
2022/09/02 00:47:26;;;;;;;1.33;1.20;;;20.40;99.90;;;;;;5039097;28;20434;-91
2022/09/02 00:49:53;;;;;;;1.50;1.40;;;20.40;99.90;;;;;;5038837;28;20952;-92
2022/09/02 00:52:24;;;;;;;1.17;1.03;;;20.40;99.90;;;;;;5021215;28;20187;-93
2022/09/02 00:54:58;;;;;;;2.03;1.50;;;20.40;99.90;;;;;;5022016;28;20435;-90
2022/09/02 00:57:32;;;;;;;2.37;1.40;;;20.40;99.90;;;;;;5037742;28;20419;-91
2022/09/02 01:00:12;;;;;;;1.70;1.40;;;20.30;99.90;;;;;;5020235;28;20467;-93
2022/09/02 01:02:40;;;;;;;1.20;1.10;;;20.30;99.90;;;;;;5020374;28;20946;-92
2022/09/02 01:05:09;;;;;;;1.70;1.57;;;20.30;99.90;;;;;;5036787;28;20442;-90
2022/09/02 01:07:39;;;;;;;2.13;1.40;;;20.30;99.90;;;;;;5020264;28;20426;-92
2022/09/02 01:10:13;;;;;;;2.00;1.50;;;20.30;99.90;;;;;;5020284;28;20508;-91
2022/09/02 01:12:40;;;;;;;2.83;2.00;;;20.20;99.90;;;;;;5037088;28;20439;-91
2022/09/02 01:15:08;;;;;;;1.80;1.70;;;20.20;99.90;;;;;;5037441;28;20864;-90
2022/09/02 01:17:34;;;;;;;1.47;1.37;;;20.20;99.90;;;;;;5038794;28;20418;-93
2022/09/02 01:20:10;;;;;;;1.40;1.30;;;20.20;99.90;;;;;;5039318;28;20466;-91
2022/09/02 01:22:36;;;;;;;1.87;1.50;;;20.20;99.90;;;;;;5042561;28;20425;-92
2022/09/02 01:25:07;;;;;;;2.53;1.67;;;20.20;99.90;;;;;;5030109;28;20547;-92
2022/09/02 01:27:33;;;;;;;2.30;1.40;;;20.20;99.90;;;;;;5035241;28;20448;-94
2022/09/02 01:29:59;;;;;;;1.80;1.40;;;20.20;99.90;;;;;;5048598;28;20462;-93
2022/09/02 01:32:28;;;;;;;4.90;1.50;;;20.20;99.90;;;;;;5034706;28;20205;-94
2022/09/02 01:34:54;;;;;;;2.00;1.33;;;20.20;99.90;;;;;;5019814;28;20530;-92
2022/09/02 01:37:20;;;;;;;1.73;1.40;;;20.20;99.90;;;;;;5020208;28;20790;-93
2022/09/02 01:39:47;;;;;;;1.93;1.20;;;20.10;99.90;;;;;;5020724;28;20469;-93
2022/09/02 01:42:13;;;;;;;1.53;1.30;;;20.10;99.90;;;;;;5020883;28;20431;-93
2022/09/02 01:44:42;;;;;;;1.87;1.67;;;20.10;99.90;;;;;;5037892;28;20518;-91
2022/09/02 01:47:13;;;;;;;1.53;1.33;;;20.10;99.90;;;;;;5036917;28;20565;-91
2022/09/02 01:49:39;;;;;;;2.90;1.57;;;20.10;99.90;;;;;;5020505;28;20944;-93
2022/09/02 01:52:06;;;;;;;1.20;1.10;;;20.10;99.90;;;;;;5021726;28;20442;-91
2022/09/02 01:54:32;;;;;;;1.60;1.20;;;20.10;99.90;;;;;;5039964;28;20197;-90
2022/09/02 01:56:57;;;;;;;1.87;1.47;;;20.10;99.90;;;;;;5021667;28;20430;-91
2022/09/02 01:59:23;;;;;;;1.23;1.13;;;20.10;99.90;;;;;;5037795;28;20435;-94
2022/09/02 02:01:49;;;;;;;2.20;1.40;;;20.10;99.90;;;;;;5024465;28;20201;-91
2022/09/02 02:04:14;;;;;;;1.53;1.43;;;20.10;99.90;;;;;;5046147;28;20612;-92
2022/09/02 02:06:46;;;;;;;3.60;1.60;;;20.00;99.90;;;;;;5036592;28;20228;-89
2022/09/02 02:09:12;;;;;;;2.03;1.73;;;20.00;99.90;;;;;;5023644;28;20679;-93
2022/09/02 02:11:38;;;;;;;1.63;1.30;;;20.00;99.90;;;;;;5035707;28;20450;-91
2022/09/02 02:14:04;;;;;;;2.17;1.83;;;20.00;99.90;;;;;;5019124;28;20443;-93
2022/09/02 02:16:30;;;;;;;1.80;1.30;;;20.00;99.90;;;;;;5038027;28;20189;-93
2022/09/02 02:18:56;;;;;;;1.80;1.40;;;20.00;99.90;;;;;;5036664;28;20562;-91
2022/09/02 02:21:22;;;;;;;1.40;1.30;;;20.00;99.90;;;;;;5018572;28;20587;-94
2022/09/02 02:23:48;;;;;;;1.60;1.10;;;20.00;99.90;;;;;;5018634;28;20553;-93
2022/09/02 02:26:14;;;;;;;1.90;1.00;;;19.90;99.90;;;;;;5034908;28;20233;-91
2022/09/02 02:28:39;;;;;;;2.57;1.53;;;19.90;99.90;;;;;;5018837;28;20434;-91
2022/09/02 02:31:06;;;;;;;1.60;1.40;;;19.90;99.90;;;;;;5034899;28;20259;-91
2022/09/02 02:33:32;;;;;;;1.90;1.50;;;19.90;99.90;;;;;;5018390;28;20712;-93
2022/09/02 02:35:58;;;;;;;2.67;1.47;;;20.00;99.90;;;;;;5018132;28;20438;-91
2022/09/02 02:38:24;;;;;;;1.73;1.50;;;19.90;99.90;;;;;;5017823;28;20932;-95
2022/09/02 02:40:56;;;;;;;1.80;1.30;;;19.90;99.90;;;;;;5018124;28;20254;-93
2022/09/02 02:43:23;;;;;;;1.20;1.10;;;19.90;99.90;;;;;;5018471;28;20201;-93
2022/09/02 02:45:48;;;;;;;2.37;1.50;;;19.90;99.90;;;;;;5018205;28;20983;-92
2022/09/02 02:48:14;;;;;;;4.10;1.50;;;19.90;99.90;;;;;;5018432;28;20434;-91
2022/09/02 02:50:41;;;;;;;2.47;1.80;;;19.90;99.90;;;;;;5034703;28;20233;-91
2022/09/02 02:53:07;;;;;;;2.27;1.20;;;19.90;99.90;;;;;;5018130;28;20204;-93
2022/09/02 02:55:34;;;;;;;6.70;1.80;;;19.90;99.90;;;;;;5034518;28;20982;-94
2022/09/02 02:58:00;;;;;;;1.63;1.53;;;19.90;99.90;;;;;;5041010;28;20461;-89
2022/09/02 03:00:28;;;;;;;1.20;1.00;;;19.90;99.90;;;;;;5046440;28;20833;-91
2022/09/02 03:02:55;;;;;;;1.20;1.10;;;19.90;99.90;;;;;;5018094;28;20442;-91
2022/09/02 03:05:21;;;;;;;3.17;1.70;;;19.90;99.90;;;;;;5018060;28;20432;-91
2022/09/02 03:07:47;;;;;;;1.67;1.57;;;19.90;99.90;;;;;;5026938;28;20414;-92
2022/09/02 03:10:13;;;;;;;1.80;1.60;;;19.80;99.90;;;;;;5050770;28;20200;-91
2022/09/02 03:12:39;;;;;;;2.10;1.53;;;19.80;99.90;;;;;;5035657;28;20179;-91
2022/09/02 03:15:08;;;;;;;2.00;1.50;;;19.80;99.90;;;;;;5035002;28;20447;-91
2022/09/02 03:17:34;;;;;;;2.20;1.70;;;19.80;99.90;;;;;;5019086;28;20967;-94
2022/09/02 03:20:00;;;;;;;2.40;1.33;;;19.80;99.90;;;;;;5018639;28;20478;-93
2022/09/02 03:22:26;;;;;;;1.43;1.30;;;19.70;99.90;;;;;;5037794;28;20937;-90
2022/09/02 03:24:52;;;;;;;2.77;1.60;;;19.70;99.90;;;;;;5016745;28;20546;-91
2022/09/02 03:27:18;;;;;;;1.97;1.60;;;19.70;99.90;;;;;;5000816;28;20428;-91
2022/09/02 03:29:44;;;;;;;2.10;1.43;;;19.70;99.90;;;;;;4999697;28;20299;-92
2022/09/02 03:32:10;;;;;;;3.73;1.70;;;19.70;99.90;;;;;;5016351;28;20420;-93
2022/09/02 03:34:36;;;;;;;4.07;2.23;;;19.70;99.90;;;;;;4999024;28;20211;-92
2022/09/02 03:37:02;;;;;;;1.60;1.50;;;19.60;99.90;;;;;;4998983;28;20514;-90
2022/09/02 03:39:27;;;;;;;4.17;1.70;;;19.60;99.90;;;;;;5016841;28;20432;-93
2022/09/02 03:41:53;;;;;;;1.47;1.30;;;19.60;99.90;;;;;;4998725;28;20499;-91
2022/09/02 03:44:19;;;;;;;2.03;1.40;;;19.60;99.90;;;;;;4998917;28;20200;-92
2022/09/02 03:46:45;;;;;;;1.83;1.73;;;19.60;99.90;;;;;;4999098;28;20947;-90
2022/09/02 03:49:11;;;;;;;3.40;1.57;;;19.50;99.90;;;;;;5008021;28;20298;-91
2022/09/02 03:51:40;;;;;;;3.17;1.30;;;19.50;99.90;;;;;;5013223;28;20428;-91
2022/09/02 03:54:06;;;;;;;5.13;1.30;;;19.50;99.90;;;;;;5019704;28;20197;-91
2022/09/02 03:56:33;;;;;;;1.53;1.27;;;19.50;99.90;;;;;;4998256;28;20462;-93
2022/09/02 03:58:59;;;;;;;2.70;1.70;;;19.50;99.90;;;;;;4998528;28;20473;-93
2022/09/02 04:01:25;;;;;;;1.70;1.60;;;19.40;99.90;;;;;;5016700;28;20463;-93
2022/09/02 04:03:50;;;;;;;1.97;1.60;;;19.40;99.90;;;;;;4998137;28;20247;-91
2022/09/02 04:06:19;;;;;;;1.90;1.77;;;19.40;99.90;;;;;;4997785;28;20411;-91
2022/09/02 04:08:45;;;;;;;2.70;1.97;;;19.40;99.90;;;;;;4998088;28;20196;-92
2022/09/02 04:11:16;;;;;;;5.30;2.00;;;19.30;99.90;;;;;;5014645;28;20440;-90
2022/09/02 04:13:42;;;;;;;1.83;1.73;;;19.30;99.90;;;;;;4999064;28;20799;-95
2022/09/02 04:16:12;;;;;;;4.30;2.00;;;19.30;99.90;;;;;;4999156;28;20435;-93
2022/09/02 04:18:38;;;;;;;2.73;1.63;;;19.30;99.90;;;;;;5016265;28;20444;-90
2022/09/02 04:21:04;;;;;;;1.83;1.67;;;19.20;99.90;;;;;;5016268;28;21039;-92
2022/09/02 04:23:30;;;;;;;3.20;1.57;;;19.20;99.90;;;;;;5016210;28;20504;-93
2022/09/02 04:25:56;;;;;;;2.70;1.70;;;19.20;99.90;;;;;;5065231;28;20963;-92
2022/09/02 04:28:23;;;;;;;3.03;2.17;;;19.10;99.90;;;;;;5044697;28;20491;-93
2022/09/02 04:30:49;;;;;;;4.83;1.63;;;19.20;99.90;;;;;;5047125;28;20447;-90
2022/09/02 04:33:16;;;;;;;2.40;2.20;;;19.10;99.90;;;;;;5061504;28;20421;-90
2022/09/02 04:35:43;;;;;;;2.23;1.83;;;19.10;99.90;;;;;;5047877;28;20521;-91
2022/09/02 04:38:09;;;;;;;2.87;1.90;;;19.10;99.90;;;;;;5056537;28;20432;-91
2022/09/02 04:40:39;;;;;;;2.07;1.87;;;19.10;99.90;;;;;;5053341;28;20471;-92
2022/09/02 04:43:05;;;;;;;2.90;2.23;;;19.00;99.90;;;;;;5053484;28;20445;-90
2022/09/02 04:45:30;;;;;;;4.10;1.63;;;19.00;99.90;;;;;;5037572;28;20475;-93
2022/09/02 04:47:56;;;;;;;3.00;2.10;;;19.00;99.90;;;;;;5081963;28;20211;-93
2022/09/02 04:50:22;;;;;;;3.80;2.23;;;19.00;99.90;;;;;;5056363;28;20623;-93
2022/09/02 04:52:47;;;;;;;3.17;2.10;;;19.00;99.90;;;;;;5058082;28;20187;-91
2022/09/02 04:55:13;;;;;;;2.57;2.07;;;18.90;99.90;;;;;;5073189;28;20241;-93
2022/09/02 04:57:39;;;;;;;2.13;1.63;;;18.90;99.90;;;;;;5075349;28;20258;-94
2022/09/02 05:00:07;;;;;;;2.00;1.90;;;18.90;99.90;;;;;;5056697;28;20482;-90
2022/09/02 05:02:33;;;;;;;3.97;2.10;;;18.90;99.90;;;;;;5074582;28;20424;-94
2022/09/02 05:04:58;;;;;;;4.03;2.20;;;18.90;99.90;;;;;;5070402;28;21011;-93
2022/09/02 05:07:24;;;;;;;2.03;1.80;;;18.90;99.90;;;;;;5046067;28;20225;-93
2022/09/02 05:09:58;;;;;;;1.80;1.70;;;18.80;99.90;;;;;;5042096;28;20211;-90
2022/09/02 05:12:26;;;;;;;2.10;1.90;;;18.80;99.90;;;;;;5059680;28;20553;-90
2022/09/02 05:14:54;;;;;;;2.87;1.70;;;18.80;99.90;;;;;;5049156;28;20444;-93
2022/09/02 05:17:20;;;;;;;2.47;2.27;;;18.80;99.90;;;;;;5041392;28;20939;-91
2022/09/02 05:19:45;;;;;;;1.73;1.63;;;18.80;99.90;;;;;;5045752;28;20472;-93
2022/09/02 05:22:11;;;;;;;2.70;2.30;;;18.70;99.90;;;;;;5040834;28;20435;-93
2022/09/02 05:24:37;;;;;;;2.30;1.93;;;18.70;99.90;;;;;;5035504;28;20241;-93
2022/09/02 05:27:03;;;;;;;2.40;1.60;;;18.70;99.90;;;;;;5039240;28;20183;-94
2022/09/02 05:29:28;;;;;;;2.20;2.00;;;18.70;99.90;;;;;;5039799;28;20209;-92
2022/09/02 05:31:54;;;;;;;2.73;1.67;;;18.70;99.90;;;;;;5057604;28;20196;-90
2022/09/02 05:34:21;;;;;;;2.23;1.90;;;18.60;99.90;;;;;;5040450;28;20204;-91
2022/09/02 05:36:46;;;;;;;1.87;1.77;;;18.70;99.90;;;;;;5039266;28;20691;-94
2022/09/02 05:39:12;;;;;;;3.20;2.30;;;18.70;99.90;;;;;;5039725;28;20436;-93
2022/09/02 05:41:38;;;;;;;2.13;1.90;;;18.60;99.90;;;;;;5059209;28;20218;-91
2022/09/02 05:44:05;;;;;;;2.33;2.00;;;18.60;99.90;;;;;;5044683;28;20995;-93
2022/09/02 05:46:31;;;;;;;3.90;1.80;;;18.60;99.90;;;;;;5055492;28;20526;-92
2022/09/02 05:49:16;;;;;;;2.57;1.90;;;18.60;99.90;;;;;;5043825;28;21017;-92
2022/09/02 05:51:49;;;;;;;2.23;1.60;;;18.60;99.90;;;;;;5035454;28;20441;-90
2022/09/02 05:54:19;;;;;;;1.70;1.60;;;18.60;99.90;;;;;;5041074;28;20442;-93
2022/09/02 05:56:50;;;;;;;2.03;1.80;;;18.50;99.90;;;;;;5034438;28;20448;-93
2022/09/02 05:59:17;;;;;;;2.67;2.10;;;18.50;99.90;;;;;;5057977;28;20459;-93
2022/09/02 06:01:42;;;;;;;2.37;1.80;;;18.50;99.90;;;;;;5050814;28;20545;-94
2022/09/02 06:04:08;;;;;;;2.10;1.90;;;18.40;99.90;;;;;;5033792;28;20496;-91
2022/09/02 06:06:37;;;;;;;3.17;2.67;;;18.40;99.90;;;;;;5039453;28;21060;-94
2022/09/02 06:09:06;;;;;;;2.67;1.90;;;18.40;99.90;;;;;;5044653;28;20564;-92
2022/09/02 06:11:32;;;;;;;5.27;2.67;;;18.40;99.90;;;;;;5044885;28;20530;-92
2022/09/02 06:13:58;;;;;;;2.43;2.20;;;18.40;99.90;;;;;;5060637;28;20459;-94
2022/09/02 06:16:25;;;;;;;4.77;2.47;;;18.30;99.90;;;;;;5046989;28;20421;-93
2022/09/02 06:18:51;;;;;;;2.87;1.97;;;18.30;99.90;;;;;;5044589;28;20191;-91
2022/09/02 06:21:19;;;;;;;2.00;1.90;;;18.30;99.90;;;;;;5034609;28;20463;-90
2022/09/02 06:23:46;;;;;;;2.97;2.67;;;18.20;99.90;;;;;;5033826;28;20967;-93
2022/09/02 06:26:13;;;;;;;3.10;2.70;;;18.20;99.90;;;;;;5050427;28;20558;-94
2022/09/02 06:28:39;;;;;;;2.67;2.47;;;18.20;99.90;;;;;;5055992;28;20433;-94
2022/09/02 06:31:09;;;;;;;3.73;2.20;;;18.20;99.90;;;;;;5036816;28;20478;-95
2022/09/02 06:33:36;;;;;;;2.10;1.90;;;18.20;99.90;;;;;;5041100;28;20427;-92
2022/09/02 06:36:05;;;;;;;2.37;2.10;;;18.20;99.90;;;;;;5034749;28;20467;-93
2022/09/02 06:38:31;;;;;;;2.30;2.10;;;18.20;99.90;;;;;;5038406;28;20453;-94
2022/09/02 06:40:58;;;;;;;2.47;2.23;;;18.20;99.90;;;;;;5054245;28;20474;-91
2022/09/02 06:43:23;;;;;;;2.40;2.20;;;18.20;99.90;;;;;;5034308;28;20187;-91
2022/09/02 06:45:49;;;;;;;3.47;2.10;;;18.30;99.90;;;;;;5037815;28;20443;-91
2022/09/02 06:48:15;;;;;;;2.60;2.33;;;18.30;99.90;;;;;;5065056;28;20216;-95
2022/09/02 06:50:42;;;;;;;2.70;1.67;;;18.30;99.90;;;;;;5038382;28;20215;-90
2022/09/02 06:53:09;;;;;;;1.63;1.53;;;18.30;99.90;;;;;;5052835;28;20200;-91
2022/09/02 06:55:40;;;;;;;2.20;2.00;;;18.30;99.90;;;;;;5033666;28;20457;-91
2022/09/02 06:58:05;;;;;;;5.23;2.20;;;18.30;99.90;;;;;;5052899;28;20443;-92
2022/09/02 07:00:31;;;;;;;3.20;2.20;;;18.30;99.90;;;;;;5043869;28;20531;-92
2022/09/02 07:05:42;;;;;;;3.23;1.80;;;18.30;99.90;;;;;;5060699;28;20244;-95
2022/09/02 07:08:08;;;;;;;3.20;2.53;;;18.30;99.90;;;;;;5042646;28;20876;-94
2022/09/02 07:10:38;;;;;;;3.47;2.40;;;18.20;99.90;;;;;;5043067;28;20203;-91
2022/09/02 07:13:05;;;;;;;2.40;2.07;;;18.20;99.90;;;;;;5035117;28;20187;-91
2022/09/02 07:15:31;;;;;;;2.30;2.10;;;18.20;99.90;;;;;;5033519;28;20442;-91
2022/09/02 07:17:56;;;;;;;3.10;2.00;;;18.20;99.90;;;;;;5032731;28;20441;-95
2022/09/02 07:20:22;;;;;;;3.33;2.03;;;18.20;99.90;;;;;;5030860;28;20518;-91
2022/09/02 07:22:48;;;;;;;2.50;2.30;;;18.20;99.90;;;;;;5027922;28;20187;-92
2022/09/02 07:25:16;;;;;;;4.63;2.37;;;18.20;99.90;;;;;;5029279;28;20599;-93
2022/09/02 07:27:42;;;;;;;2.27;2.07;;;18.10;99.90;;;;;;5020242;28;20458;-94
2022/09/02 07:30:10;;;;;;;2.20;2.00;;;18.10;99.90;;;;;;5029997;28;20861;-92
2022/09/02 07:32:37;;;;;;;3.40;2.60;;;18.10;99.90;;;;;;5032717;28;20447;-94
2022/09/02 07:35:05;;;;;;;3.37;2.50;;;18.10;99.90;;;;;;5029731;28;20471;-94
2022/09/02 07:37:33;;;;;;;2.60;2.40;;;18.10;99.90;;;;;;5038089;28;20440;-91
2022/09/02 07:40:02;;;;;;;4.43;2.60;;;18.10;99.90;;;;;;5032784;28;20471;-95
2022/09/02 07:42:28;;;;;;;5.73;2.20;;;18.10;99.90;;;;;;5031281;28;20451;-92
2022/09/02 07:44:54;;;;;;;4.43;2.70;;;18.10;99.90;;;;;;5037969;28;20766;-91
2022/09/02 07:47:19;;;;;;;4.23;2.80;;;18.00;99.90;;;;;;5031034;28;20179;-91
2022/09/02 07:49:45;;;;;;;5.10;2.60;;;18.00;99.90;;;;;;5049731;28;20233;-91
2022/09/02 07:52:11;;;;;;;4.13;2.93;;;17.90;99.90;;;;;;5028815;28;20194;-95
2022/09/02 07:54:36;;;;;;;3.60;2.33;;;17.80;99.90;;;;;;5033061;28;20202;-92
2022/09/02 07:57:02;;;;;;;4.43;2.60;;;17.80;99.90;;;;;;5036306;28;20236;-95
2022/09/02 07:59:28;;;;;;;2.90;2.20;;;17.70;99.90;;;;;;5030315;28;20570;-94
2022/09/02 08:01:53;;;;;;;3.60;2.70;;;17.70;99.90;;;;;;5033296;28;20312;-91
2022/09/02 08:04:22;;;;;;;4.47;2.70;;;17.60;99.90;;;;;;5038337;28;20273;-95
2022/09/02 08:06:49;;;;;;;5.53;3.43;;;17.60;99.90;;;;;;5046616;28;20196;-91
2022/09/02 08:09:15;;;;;;;5.97;3.43;;;17.50;99.90;;;;;;5039160;28;20812;-95
2022/09/02 08:11:46;;;;;;;3.10;2.90;;;17.50;99.90;;;;;;5049930;28;20496;-94
2022/09/02 08:14:16;;;;;;;5.53;3.67;;;17.40;99.90;;;;;;5031099;28;21221;-90
2022/09/02 08:16:44;;;;;;;3.77;3.40;;;17.40;99.90;;;;;;5030050;28;20435;-95
2022/09/02 08:19:11;;;;;;;4.97;2.50;;;17.40;99.90;;;;;;5049445;28;20447;-91
2022/09/02 08:21:37;;;;;;;4.87;3.07;;;17.40;99.90;;;;;;5027090;28;20466;-91
2022/09/02 08:24:03;;;;;;;3.50;3.20;;;17.40;99.90;;;;;;5027058;28;20439;-90
2022/09/02 08:26:29;;;;;;;3.30;3.00;;;17.40;99.90;;;;;;5028184;28;20289;-90
2022/09/02 08:28:55;;;;;;;2.93;2.43;;;17.40;99.90;;;;;;5030201;28;20533;-91
2022/09/02 08:31:21;;;;;;;3.90;2.57;;;17.50;99.90;;;;;;5034618;28;20446;-94
2022/09/02 08:33:47;;;;;;;3.63;2.90;;;17.40;99.90;;;;;;5029889;28;20932;-94
2022/09/02 08:36:14;;;;;;;3.87;3.10;;;17.40;99.90;;;;;;5032440;28;20538;-93
2022/09/02 08:38:41;;;;;;;3.60;2.43;;;17.40;99.90;;;;;;5035296;28;20443;-91
2022/09/02 08:41:20;;;;;;;3.77;3.47;;;17.40;99.90;;;;;;5033296;28;20484;-91
2022/09/02 08:43:46;;;;;;;4.77;2.77;;;17.40;99.90;;;;;;5036869;28;20447;-93
2022/09/02 08:46:16;;;;;;;6.57;3.57;;;17.40;99.90;;;;;;5038366;28;20470;-94
2022/09/02 08:48:54;;;;;;;4.40;3.23;;;17.50;99.90;;;;;;5036326;28;20813;-94
2022/09/02 08:51:26;;;;;;;4.73;3.20;;;17.50;99.90;;;;;;5039455;28;20447;-92
2022/09/02 08:54:01;;;;;;;4.03;3.37;;;17.50;99.90;;;;;;5035806;28;20805;-90
2022/09/02 08:56:27;;;;;;;3.83;3.03;;;17.50;99.90;;;;;;5039318;28;20412;-91
2022/09/02 08:58:55;;;;;;;5.87;3.10;;;17.50;99.90;;;;;;5028393;28;20441;-94
2022/09/02 09:01:34;;;;;;;5.93;3.10;;;17.50;99.90;;;;;;5038481;28;20229;-91
2022/09/02 09:04:30;;;;;;;3.80;2.80;;;17.50;99.90;;;;;;5031551;28;20485;-96
2022/09/02 09:07:13;;;;;;;6.70;3.53;;;17.50;99.90;;;;;;5061965;28;20525;-91
2022/09/02 09:10:04;;;;;;;3.50;3.20;;;17.50;99.90;;;;;;5036522;28;20473;-90
2022/09/02 09:12:38;;;;;;;3.33;2.77;;;17.50;99.90;;;;;;5037164;28;20548;-91
2022/09/02 09:15:15;;;;;;;3.80;3.37;;;17.50;99.90;;;;;;5043441;28;20451;-93
2022/09/02 09:17:46;;;;;;;4.13;3.00;;;17.50;99.90;;;;;;5041057;28;20446;-92
2022/09/02 09:20:24;;;;;;;3.90;3.20;;;17.60;99.90;;;;;;5031870;28;20471;-92
2022/09/02 09:22:55;;;;;;;3.40;2.97;;;17.70;99.90;;;;;;5032723;28;20474;-94
2022/09/02 09:25:28;;;;;;;3.50;2.70;;;17.70;99.90;;;;;;5043028;28;20572;-92
2022/09/02 09:27:56;;;;;;;3.50;3.03;;;17.80;99.90;;;;;;5034142;28;20877;-95
2022/09/02 09:30:22;;;;;;;4.00;2.77;;;18.00;99.90;;;;;;5036700;28;20455;-92
2022/09/02 09:32:58;;;;;;;3.83;3.00;;;18.00;99.90;;;;;;5035796;28;20509;-93
2022/09/02 09:35:25;;;;;;;5.40;3.20;;;18.10;99.90;;;;;;5014637;28;20461;-91
2022/09/02 09:37:52;;;;;;;5.23;3.53;;;18.10;99.90;;;;;;5027821;28;20435;-92
2022/09/02 09:40:20;;;;;;;4.97;3.30;;;18.20;99.90;;;;;;5034790;28;20466;-92
2022/09/02 09:42:47;;;;;;;8.33;7.47;;;18.20;99.90;;;;;;5048170;28;20434;-92
2022/09/02 09:45:28;;;;;;;5.83;5.00;;;18.20;99.90;;;;;;5062336;28;20455;-92
2022/09/02 09:48:12;;;;;;;3.70;3.40;;;18.20;99.90;;;;;;5040561;28;20530;-96
2022/09/02 09:50:38;;;;;;;4.33;3.93;;;18.30;99.90;;;;;;5032285;28;20447;-92
2022/09/02 09:53:16;;;;;;;19.23;5.80;;;18.20;99.90;;;;;;5032661;28;20522;-92
2022/09/02 09:55:57;;;;;;;4.77;4.27;;;18.20;99.90;;;;;;5033103;28;20822;-92
2022/09/02 09:58:29;;;;;;;4.40;4.00;;;18.20;99.90;;;;;;5029736;28;20455;-96
2022/09/02 10:00:59;;;;;;;6.70;3.73;;;18.20;99.90;;;;;;5049611;28;20478;-94
2022/09/02 10:03:27;;;;;;;4.20;3.80;;;18.20;99.90;;;;;;5031587;28;21155;-92
2022/09/02 10:06:17;;;;;;;4.90;4.40;;;18.20;99.90;;;;;;5048072;28;20545;-91
2022/09/02 10:08:51;;;;;;;5.40;4.10;;;18.20;99.90;;;;;;5031147;28;20438;-92
2022/09/02 10:11:27;;;;;;;4.17;3.37;;;18.30;99.90;;;;;;5035098;28;20433;-92
2022/09/02 10:13:59;;;;;;;4.83;4.40;;;18.20;99.90;;;;;;5046358;28;20512;-96
2022/09/02 10:16:41;;;;;;;6.47;3.70;;;18.20;99.90;;;;;;5035443;28;20533;-95
2022/09/02 10:19:43;;;;;;;4.10;3.70;;;18.20;99.90;;;;;;5034575;28;20454;-96
2022/09/02 10:22:18;;;;;;;5.57;3.60;;;18.10;99.90;;;;;;5039474;28;20470;-95
2022/09/02 10:25:06;;;;;;;5.87;3.87;;;18.10;99.90;;;;;;5033394;28;20481;-93
2022/09/02 10:27:32;;;;;;;4.47;3.90;;;18.00;99.90;;;;;;5035600;28;20492;-94
2022/09/02 10:30:10;;;;;;;4.70;4.30;;;18.00;99.90;;;;;;5053858;28;20454;-91
2022/09/02 10:33:10;;;;;;;5.10;4.07;;;18.00;99.90;;;;;;5050809;28;20645;-92
2022/09/02 10:35:42;;;;;;;5.47;3.63;;;18.00;99.90;;;;;;4979251;28;21638;-93
2022/09/02 10:38:28;;;;;;;5.30;4.20;;;18.10;99.90;;;;;;5029246;28;20443;-93
2022/09/02 10:41:12;;;;;;;7.37;5.67;;;18.10;99.90;;;;;;5035248;28;20459;-94
2022/09/02 10:43:53;;;;;;;4.47;4.03;;;18.10;99.90;;;;;;5032163;28;20473;-93
2022/09/02 10:46:23;;;;;;;5.90;4.43;;;18.10;99.90;;;;;;5053090;28;20462;-92
2022/09/02 10:49:17;;;;;;;5.70;4.70;;;18.10;99.90;;;;;;5034188;28;20439;-95
2022/09/02 10:52:07;;;;;;;4.27;3.87;;;18.10;99.90;;;;;;5030970;28;20435;-96
2022/09/02 10:54:56;;;;;;;5.57;4.40;;;18.20;99.90;;;;;;5031925;28;20904;-93
2022/09/02 10:57:32;;;;;;;8.67;4.80;;;18.20;99.90;;;;;;5030180;28;20443;-93
2022/09/02 11:00:10;;;;;;;6.20;4.77;;;18.20;99.90;;;;;;5033356;28;20470;-92
2022/09/02 11:03:11;;;;;;;7.20;5.13;;;18.20;99.90;;;;;;5034531;28;20842;-93
2022/09/02 11:05:53;;;;;;;5.90;5.27;;;18.30;99.90;;;;;;5031888;28;20794;-93
2022/09/02 11:08:39;;;;;;;5.97;4.77;;;18.30;99.90;;;;;;5036267;28;20451;-86
2022/09/02 11:11:20;;;;;;;6.23;5.53;;;18.40;99.90;;;;;;5032883;28;20470;-93
2022/09/02 11:13:51;;;;;;;7.40;5.03;;;18.40;99.90;;;;;;5059749;28;20413;-88
2022/09/02 11:16:46;;;;;;;5.63;4.70;;;18.40;99.90;;;;;;5051401;28;20519;-94
2022/09/02 11:19:19;;;;;;;29.63;22.60;;;18.30;99.90;;;;;;5045802;28;20439;-90
2022/09/02 11:21:59;;;;;;;35.90;26.10;;;18.30;99.90;;;;;;5046606;28;20467;-96
2022/09/02 11:24:30;;;;;;;9.00;6.50;;;18.50;99.90;;;;;;5040461;28;20491;-89
2022/09/02 11:27:11;;;;;;;4.67;4.20;;;18.50;99.90;;;;;;5039470;28;20431;-95
2022/09/02 11:29:55;;;;;;;5.43;4.80;;;18.50;99.90;;;;;;5041618;28;20458;-93
2022/09/02 11:32:41;;;;;;;6.10;5.40;;;18.60;99.90;;;;;;5026060;28;20849;-96
2022/09/02 11:35:12;;;;;;;7.00;5.07;;;18.60;99.90;;;;;;5036562;28;20459;-89
2022/09/02 11:37:51;;;;;;;7.67;5.20;;;18.60;99.90;;;;;;5033620;28;20439;-91
2022/09/02 11:40:25;;;;;;;5.07;4.57;;;18.60;99.90;;;;;;5038564;28;20563;-89
2022/09/02 11:43:09;;;;;;;6.43;5.00;;;18.70;99.90;;;;;;5035074;28;20527;-96
2022/09/02 11:46:13;;;;;;;6.23;4.93;;;18.70;99.90;;;;;;5032197;28;20839;-88
2022/09/02 11:49:12;;;;;;;7.10;4.90;;;18.70;99.90;;;;;;5048945;28;20529;-91
2022/09/02 11:52:00;;;;;;;7.13;5.70;;;18.70;99.90;;;;;;5045156;28;20460;-94
2022/09/02 11:54:32;;;;;;;5.03;4.37;;;18.70;99.90;;;;;;5040719;28;20466;-94
2022/09/02 11:57:01;;;;;;;8.07;7.07;;;18.70;99.90;;;;;;5045603;28;20454;-91
2022/09/02 11:59:51;;;;;;;5.83;5.27;;;18.70;99.90;;;;;;5042517;28;20467;-91
2022/09/02 12:02:42;;;;;;;7.73;5.47;;;18.70;99.90;;;;;;5046297;28;20452;-92
2022/09/02 12:05:28;;;;;;;7.57;6.83;;;18.70;99.90;;;;;;5044565;28;20493;-88
2022/09/02 12:08:05;;;;;;;13.33;6.60;;;18.80;99.90;;;;;;5062613;28;20441;-89
2022/09/02 12:10:44;;;;;;;7.47;6.30;;;18.80;99.90;;;;;;5036894;28;20648;-91
2022/09/02 12:13:34;;;;;;;5.83;5.30;;;18.90;99.90;;;;;;5043459;28;20437;-93
2022/09/02 12:16:12;;;;;;;6.50;5.90;;;19.00;99.90;;;;;;5058469;28;20910;-89
2022/09/02 12:18:41;;;;;;;7.03;5.47;;;19.10;99.90;;;;;;5041963;28;20433;-90
2022/09/02 12:21:17;;;;;;;5.40;4.90;;;19.20;99.90;;;;;;5058910;28;21260;-94
2022/09/02 12:23:55;;;;;;;7.53;4.90;;;19.30;99.90;;;;;;5028989;28;20440;-92
2022/09/02 12:26:21;;;;;;;6.07;5.30;;;19.30;99.90;;;;;;5042501;28;20490;-92
2022/09/02 12:28:52;;;;;;;6.03;5.43;;;19.20;99.90;;;;;;5055310;28;20441;-94
2022/09/02 12:31:39;;;;;;;8.67;6.87;;;19.30;99.90;;;;;;5061308;28;20422;-94
2022/09/02 12:34:24;;;;;;;6.67;5.63;;;19.30;99.90;;;;;;5053155;28;20470;-91
2022/09/02 12:36:56;;;;;;;8.33;6.17;;;19.30;99.90;;;;;;5070798;28;20420;-94
2022/09/02 12:39:28;;;;;;;5.60;5.10;;;19.30;99.90;;;;;;5039257;28;20529;-96
2022/09/02 12:41:59;;;;;;;8.40;6.40;;;19.30;99.90;;;;;;5022482;28;20480;-93
2022/09/02 12:44:34;;;;;;;7.23;6.47;;;19.40;99.90;;;;;;5022181;28;20458;-94
2022/09/02 12:47:25;;;;;;;8.13;5.17;;;19.40;99.90;;;;;;5032700;28;20736;-95
2022/09/02 12:50:06;;;;;;;5.50;5.00;;;19.40;99.90;;;;;;5031678;28;20585;-93
2022/09/02 12:52:35;;;;;;;5.13;4.63;;;19.30;99.90;;;;;;5039220;28;20441;-94
2022/09/02 12:55:24;;;;;;;5.10;4.60;;;19.30;99.90;;;;;;5023535;28;20464;-96
2022/09/02 12:58:11;;;;;;;5.27;4.57;;;19.40;99.90;;;;;;5022261;28;20461;-96
2022/09/02 13:00:45;;;;;;;6.23;5.10;;;19.40;99.90;;;;;;5028536;28;20484;-94
2022/09/02 13:04:02;;;;;;;6.23;5.33;;;19.40;99.90;;;;;;5061818;28;20437;-96
2022/09/02 13:06:44;;;;;;;5.20;4.80;;;19.50;99.90;;;;;;5017256;28;20482;-95